createdAt,value
2018-07-30T00:01:10.018Z,20.1
2018-07-30T00:06:45.997Z,20
2018-07-30T00:12:15.897Z,20
2018-07-30T00:17:41.104Z,20
2018-07-30T00:23:10.754Z,19.9
2018-07-30T00:28:40.723Z,19.8
2018-07-30T00:34:11.628Z,19.8
2018-07-30T00:39:47.608Z,19.8
2018-07-30T00:45:13.444Z,19.7
2018-07-30T00:50:43.335Z,19.7
2018-07-30T00:56:18.353Z,19.6
2018-07-30T01:01:44.644Z,19.6
2018-07-30T01:07:14.046Z,19.6
2018-07-30T01:12:45.183Z,19.6
2018-07-30T01:18:20.814Z,19.6
2018-07-30T01:23:45.703Z,19.7
2018-07-30T01:29:15.676Z,19.7
2018-07-30T01:34:46.559Z,19.8
2018-07-30T01:40:17.526Z,19.9
2018-07-30T01:45:53.441Z,19.9
2018-07-30T01:51:24.418Z,20
2018-07-30T01:56:49.508Z,20.1
2018-07-30T02:02:20.220Z,20.1
2018-07-30T02:07:50.166Z,20.1
2018-07-30T02:13:20.238Z,20.1
2018-07-30T02:18:50.110Z,20.2
2018-07-30T02:24:20.064Z,20.2
2018-07-30T02:29:51.165Z,20.1
2018-07-30T02:35:22.111Z,20.1
2018-07-30T02:40:52.870Z,20
2018-07-30T02:46:22.807Z,19.9
2018-07-30T02:51:52.713Z,19.8
2018-07-30T02:57:23.626Z,19.7
2018-07-30T03:02:54.504Z,19.6
2018-07-30T03:08:24.413Z,19.6
2018-07-30T03:13:59.396Z,19.6
2018-07-30T03:19:25.232Z,19.5
2018-07-30T03:24:56.471Z,19.5
2018-07-30T03:30:26.980Z,19.4
2018-07-30T03:35:56.861Z,19.4
2018-07-30T03:41:27.666Z,19.5
2018-07-30T03:46:58.647Z,19.5
2018-07-30T03:52:34.486Z,19.6
2018-07-30T03:58:05.534Z,19.6
2018-07-30T04:03:35.257Z,19.7
2018-07-30T04:09:06.194Z,19.7
2018-07-30T04:14:32.038Z,19.8
2018-07-30T04:20:03.077Z,19.8
2018-07-30T04:25:33.841Z,19.9
2018-07-30T04:31:04.823Z,20
2018-07-30T04:36:35.737Z,20.1
2018-07-30T04:42:06.671Z,20.1
2018-07-30T04:47:36.620Z,20.2
2018-07-30T04:53:06.586Z,20.3
2018-07-30T04:58:37.570Z,20.4
2018-07-30T05:04:12.547Z,20.5
2018-07-30T05:09:42.536Z,20.6
2018-07-30T05:15:13.515Z,20.6
2018-07-30T05:20:44.540Z,20.6
2018-07-30T05:26:09.517Z,20.6
2018-07-30T05:31:40.585Z,20.6
2018-07-30T05:37:11.601Z,20.7
2018-07-30T05:42:47.578Z,20.6
2018-07-30T05:48:12.485Z,20.6
2018-07-30T05:53:48.565Z,20.7
2018-07-30T05:59:19.743Z,20.8
2018-07-30T06:04:49.534Z,21
2018-07-30T06:10:20.597Z,21.1
2018-07-30T06:15:46.663Z,21.4
2018-07-30T06:21:17.767Z,21.6
2018-07-30T06:26:54.017Z,21.9
2018-07-30T06:32:24.069Z,22
2018-07-30T06:37:49.318Z,22.2
2018-07-30T06:48:49.622Z,22.4
2018-07-30T06:48:50.615Z,22.4
2018-07-30T06:54:20.868Z,22.5
2018-07-30T06:59:52.101Z,22.7
2018-07-30T07:05:28.348Z,22.9
2018-07-30T07:10:53.970Z,23.1
2018-07-30T07:16:24.891Z,23.1
2018-07-30T07:21:55.198Z,23.1
2018-07-30T07:27:26.519Z,23.2
2018-07-30T07:32:57.730Z,23.3
2018-07-30T07:38:33.105Z,23.4
2018-07-30T07:43:58.601Z,23.5
2018-07-30T07:49:28.736Z,23.5
2018-07-30T07:55:04.086Z,23.5
2018-07-30T08:00:29.381Z,23.6
2018-07-30T08:06:00.988Z,23.7
2018-07-30T08:11:31.704Z,23.7
2018-07-30T08:11:36.057Z,23.7
2018-07-30T08:17:01.509Z,23.7
2018-07-30T08:22:31.885Z,23.8
2018-07-30T08:28:03.169Z,24
2018-07-30T08:33:33.583Z,24.2
2018-07-30T08:39:04.064Z,24.3
2018-07-30T08:44:35.485Z,24.3
2018-07-30T08:50:05.889Z,24.4
2018-07-30T08:55:36.312Z,24.5
2018-07-30T09:01:13.204Z,24.7
2018-07-30T09:06:43.568Z,24.9
2018-07-30T09:12:09.838Z,25.1
2018-07-30T09:17:46.411Z,25.3
2018-07-30T09:23:11.924Z,25.4
2018-07-30T09:28:43.553Z,25.4
2018-07-30T09:28:45.522Z,25.4
2018-07-30T09:34:20.352Z,25.4
2018-07-30T09:39:46.715Z,25.5
2018-07-30T09:45:23.354Z,25.5
2018-07-30T09:50:49.121Z,25.7
2018-07-30T09:56:19.777Z,25.8
2018-07-30T10:01:51.353Z,25.9
2018-07-30T10:01:51.831Z,25.9
2018-07-30T10:07:21.825Z,26
2018-07-30T10:12:57.669Z,26.1
2018-07-30T10:18:29.353Z,26.1
2018-07-30T10:23:55.300Z,26
2018-07-30T10:29:25.515Z,25.9
2018-07-30T10:35:02.019Z,25.7
2018-07-30T10:40:33.564Z,25.5
2018-07-30T10:46:00.244Z,25.4
2018-07-30T10:46:04.286Z,25.4
2018-07-30T10:51:29.691Z,25.4
2018-07-30T10:51:30.454Z,25.4
2018-07-30T10:57:06.081Z,25.5
2018-07-30T11:02:37.843Z,25.6
2018-07-30T11:08:07.522Z,25.9
2018-07-30T11:13:39.247Z,26.1
2018-07-30T11:19:04.918Z,26.3
2018-07-30T11:24:35.682Z,26.5
2018-07-30T11:30:07.790Z,26.5
2018-07-30T11:35:38.296Z,26.6
2018-07-30T11:41:09.778Z,26.7
2018-07-30T11:41:10.411Z,26.7
2018-07-30T11:46:40.566Z,26.7
2018-07-30T11:52:11.558Z,26.7
2018-07-30T11:57:42.011Z,26.8
2018-07-30T12:03:14.082Z,27.1
2018-07-30T12:08:45.882Z,27.2
2018-07-30T12:14:17.657Z,27.2
2018-07-30T12:19:48.245Z,27.2
2018-07-30T12:25:24.358Z,27.1
2018-07-30T12:30:49.847Z,26.9
2018-07-30T12:41:52.906Z,26.6
2018-07-30T12:47:23.327Z,26.7
2018-07-30T12:52:55.043Z,27
2018-07-30T12:58:26.919Z,27.5
2018-07-30T13:04:03.648Z,27.8
2018-07-30T13:09:29.878Z,28.1
2018-07-30T13:15:01.712Z,28.2
2018-07-30T13:20:33.059Z,28
2018-07-30T13:26:08.455Z,27.9
2018-07-30T13:31:35.350Z,27.8
2018-07-30T13:37:07.734Z,27.7
2018-07-30T13:42:44.412Z,27.7
2018-07-30T13:48:11.045Z,27.5
2018-07-30T13:53:47.878Z,27.4
2018-07-30T13:59:13.705Z,27.3
2018-07-30T14:04:45.782Z,27.2
2018-07-30T14:10:17.346Z,27.1
2018-07-30T14:15:48.187Z,27
2018-07-30T14:15:48.940Z,27
2018-07-30T14:21:18.982Z,26.9
2018-07-30T14:26:49.779Z,27
2018-07-30T14:37:56.524Z,27.3
2018-07-30T14:49:00.160Z,27.4
2018-07-30T14:54:26.793Z,27.4
2018-07-30T14:59:57.095Z,27.5
2018-07-30T15:05:32.823Z,27.5
2018-07-30T15:10:58.892Z,27.4
2018-07-30T15:16:34.506Z,27.3
2018-07-30T15:22:01.374Z,27.2
2018-07-30T15:27:32.150Z,27.2
2018-07-30T15:33:04.246Z,27.2
2018-07-30T15:38:34.893Z,27.2
2018-07-30T15:44:05.966Z,27.3
2018-07-30T15:49:41.605Z,27.4
2018-07-30T15:55:13.719Z,27.5
2018-07-30T16:00:40.287Z,27.5
2018-07-30T16:00:46.928Z,27.5
2018-07-30T16:06:11.148Z,27.6
2018-07-30T16:11:42.266Z,27.8
2018-07-30T16:17:14.090Z,27.9
2018-07-30T16:22:51.238Z,27.8
2018-07-30T16:28:17.766Z,27.7
2018-07-30T16:33:53.735Z,27.6
2018-07-30T16:39:25.595Z,27.6
2018-07-30T16:44:52.522Z,27.7
2018-07-30T16:44:53.348Z,27.7
2018-07-30T16:50:23.392Z,27.8
2018-07-30T16:55:54.759Z,27.9
2018-07-30T17:01:25.433Z,27.9
2018-07-30T17:06:57.321Z,27.8
2018-07-30T17:12:28.482Z,27.6
2018-07-30T17:18:00.412Z,27.4
2018-07-30T17:23:35.952Z,27.3
2018-07-30T17:29:01.803Z,27.1
2018-07-30T17:34:33.131Z,27
2018-07-30T17:40:05.463Z,26.9
2018-07-30T17:45:36.234Z,26.9
2018-07-30T17:51:07.060Z,26.8
2018-07-30T17:56:39.005Z,26.9
2018-07-30T18:02:15.924Z,26.9
2018-07-30T18:07:46.569Z,26.9
2018-07-30T18:13:17.237Z,26.9
2018-07-30T18:18:43.087Z,26.9
2018-07-30T18:24:18.896Z,26.8
2018-07-30T18:29:49.919Z,26.7
2018-07-30T18:35:16.384Z,26.6
2018-07-30T18:40:47.156Z,26.4
2018-07-30T18:46:23.875Z,26.2
2018-07-30T18:51:49.781Z,25.9
2018-07-30T18:57:20.582Z,25.8
2018-07-30T19:02:51.987Z,25.6
2018-07-30T19:08:22.597Z,25.4
2018-07-30T19:13:53.069Z,25.3
2018-07-30T19:19:29.690Z,25.1
2018-07-30T19:24:55.237Z,24.9
2018-07-30T19:30:26.741Z,24.8
2018-07-30T19:36:03.261Z,24.6
2018-07-30T19:41:29.713Z,24.5
2018-07-30T19:47:00.176Z,24.4
2018-07-30T19:52:30.651Z,24.3
2018-07-30T19:58:06.696Z,24.2
2018-07-30T20:03:31.713Z,24.1
2018-07-30T20:09:08.052Z,24.1
2018-07-30T20:14:33.702Z,24
2018-07-30T20:20:04.900Z,23.9
2018-07-30T20:25:40.655Z,23.9
2018-07-30T20:31:05.712Z,23.9
2018-07-30T20:36:36.219Z,23.8
2018-07-30T20:42:06.879Z,23.8
2018-07-30T20:47:36.951Z,23.7
2018-07-30T20:53:07.354Z,23.6
2018-07-30T20:58:38.743Z,23.6
2018-07-30T21:04:10.271Z,23.6
2018-07-30T21:09:40.569Z,23.5
2018-07-30T21:15:15.862Z,23.5
2018-07-30T21:20:41.312Z,23.4
2018-07-30T21:26:11.875Z,23.3
2018-07-30T21:31:41.948Z,23.2
2018-07-30T21:37:13.457Z,23.2
2018-07-30T21:42:44.586Z,23.1
2018-07-30T21:48:14.999Z,23.1
2018-07-30T21:53:45.578Z,23.1
2018-07-30T21:59:15.591Z,23.1
2018-07-30T22:04:46.131Z,23
2018-07-30T22:10:16.240Z,23
2018-07-30T22:15:46.863Z,23
2018-07-30T22:21:16.837Z,22.9
2018-07-30T22:26:48.416Z,22.8
2018-07-30T22:32:18.384Z,22.8
2018-07-30T22:37:48.797Z,22.7
2018-07-30T22:43:25.497Z,22.7
2018-07-30T22:48:50.230Z,22.7
2018-07-30T22:59:51.798Z,22.7
2018-07-30T23:05:28.330Z,22.6
2018-07-30T23:10:53.263Z,22.5
2018-07-30T23:16:23.799Z,22.5
2018-07-30T23:22:00.044Z,22.5
2018-07-30T23:27:26.379Z,22.4
2018-07-30T23:33:02.442Z,22.4
2018-07-30T23:38:28.633Z,22.4
2018-07-30T23:43:58.707Z,22.4
2018-07-30T23:49:29.028Z,22.4
2018-07-30T23:55:00.270Z,22.4
